createdAt,value
2019-05-01T00:01:33.445Z,2.90
2019-05-01T00:04:19.154Z,2.95
2019-05-01T00:06:49.587Z,2.55
2019-05-01T00:09:18.478Z,2.83
2019-05-01T00:11:47.462Z,14.00
2019-05-01T00:14:16.454Z,4.22
2019-05-01T00:16:45.557Z,3.90
2019-05-01T00:19:14.547Z,3.20
2019-05-01T00:21:43.667Z,3.85
2019-05-01T00:24:12.537Z,2.65
2019-05-01T00:26:41.633Z,2.47
2019-05-01T00:29:10.522Z,2.60
2019-05-01T00:31:39.601Z,2.42
2019-05-01T00:34:08.500Z,2.10
2019-05-01T00:36:37.600Z,2.40
2019-05-01T00:39:07.326Z,2.22
2019-05-01T00:41:36.297Z,2.43
2019-05-01T00:44:05.489Z,2.55
2019-05-01T00:46:34.380Z,2.80
2019-05-01T00:49:03.273Z,2.27
2019-05-01T00:51:32.175Z,2.50
2019-05-01T00:54:01.154Z,2.60
2019-05-01T00:56:40.040Z,2.70
2019-05-01T00:59:13.378Z,2.80
2019-05-01T01:01:59.775Z,3.00
2019-05-01T01:04:28.673Z,2.58
2019-05-01T01:06:57.449Z,2.50
2019-05-01T01:09:26.538Z,3.15
2019-05-01T01:11:55.534Z,2.75
2019-05-01T01:14:24.466Z,3.35
2019-05-01T01:16:53.323Z,3.27
2019-05-01T01:19:22.204Z,2.83
2019-05-01T01:21:50.981Z,2.98
2019-05-01T01:24:19.909Z,3.10
2019-05-01T01:26:48.893Z,3.30
2019-05-01T01:29:17.754Z,3.30
2019-05-01T01:31:46.771Z,3.20
2019-05-01T01:34:15.748Z,2.70
2019-05-01T01:36:44.645Z,3.45
2019-05-01T01:39:13.866Z,3.05
2019-05-01T01:41:42.834Z,2.92
2019-05-01T01:44:25.405Z,2.80
2019-05-01T01:46:58.839Z,2.52
2019-05-01T01:49:27.733Z,2.80
2019-05-01T01:51:56.822Z,3.30
2019-05-01T01:54:25.921Z,3.15
2019-05-01T01:56:54.696Z,3.22
2019-05-01T01:59:23.600Z,3.72
2019-05-01T02:01:53.955Z,3.40
2019-05-01T02:04:40.837Z,4.05
2019-05-01T02:07:09.937Z,3.90
2019-05-01T02:09:38.665Z,4.70
2019-05-01T02:12:07.609Z,5.05
2019-05-01T02:14:36.598Z,4.95
2019-05-01T02:17:05.736Z,5.80
2019-05-01T02:19:34.781Z,4.87
2019-05-01T02:22:03.573Z,5.33
2019-05-01T02:24:32.453Z,5.20
2019-05-01T02:27:21.006Z,5.47
2019-05-01T02:29:51.341Z,5.20
2019-05-01T02:32:20.207Z,5.70
2019-05-01T02:34:49.220Z,5.67
2019-05-01T02:37:18.110Z,5.85
2019-05-01T02:39:47.167Z,6.08
2019-05-01T02:42:16.088Z,5.25
2019-05-01T02:44:50.109Z,5.87
2019-05-01T02:47:22.167Z,5.20
2019-05-01T02:49:52.728Z,5.00
2019-05-01T02:52:23.099Z,6.00
2019-05-01T02:54:52.097Z,5.97
2019-05-01T02:57:21.847Z,5.50
2019-05-01T02:59:52.083Z,5.63
2019-05-01T03:02:21.653Z,6.25
2019-05-01T03:04:50.750Z,5.53
2019-05-01T03:07:19.667Z,5.87
2019-05-01T03:09:48.626Z,6.12
2019-05-01T03:12:17.523Z,5.40
2019-05-01T03:14:47.014Z,5.58
2019-05-01T03:17:35.878Z,5.75
2019-05-01T03:20:07.615Z,5.50
2019-05-01T03:22:38.063Z,5.95
2019-05-01T03:25:07.881Z,5.65
2019-05-01T03:27:36.657Z,5.63
2019-05-01T03:30:06.641Z,5.47
2019-05-01T03:32:36.018Z,6.00
2019-05-01T03:35:06.307Z,5.33
2019-05-01T03:37:35.393Z,5.58
2019-05-01T03:40:05.444Z,5.72
2019-05-01T03:42:34.302Z,5.78
2019-05-01T03:45:03.397Z,6.87
2019-05-01T03:47:32.384Z,5.80
2019-05-01T03:50:01.490Z,5.30
2019-05-01T03:52:30.790Z,5.95
2019-05-01T03:54:59.684Z,5.80
2019-05-01T03:57:28.586Z,5.55
2019-05-01T03:59:57.480Z,5.72
2019-05-01T04:02:33.953Z,5.75
2019-05-01T04:05:00.955Z,6.10
2019-05-01T04:07:29.969Z,5.70
2019-05-01T04:09:58.870Z,5.40
2019-05-01T04:12:27.706Z,5.30
2019-05-01T04:14:56.743Z,5.20
2019-05-01T04:17:27.130Z,5.42
2019-05-01T04:19:56.043Z,5.67
2019-05-01T04:22:24.862Z,5.20
2019-05-01T04:24:53.737Z,5.90
2019-05-01T04:27:24.094Z,5.80
2019-05-01T04:29:54.467Z,5.10
2019-05-01T04:32:24.914Z,4.80
2019-05-01T04:35:11.724Z,5.97
2019-05-01T04:37:40.686Z,5.17
2019-05-01T04:40:09.805Z,5.03
2019-05-01T04:42:38.706Z,5.17
2019-05-01T04:45:08.057Z,6.05
2019-05-01T04:47:36.980Z,5.80
2019-05-01T04:50:08.843Z,5.12
2019-05-01T04:52:37.786Z,4.95
2019-05-01T04:55:06.815Z,5.25
2019-05-01T04:57:35.714Z,5.10
2019-05-01T05:00:06.377Z,5.00
2019-05-01T05:05:11.501Z,5.05
2019-05-01T05:07:40.273Z,5.05
2019-05-01T05:10:09.167Z,5.17
2019-05-01T05:12:42.667Z,5.20
2019-05-01T05:15:29.793Z,5.08
2019-05-01T05:17:58.855Z,4.53
2019-05-01T05:20:27.761Z,4.85
2019-05-01T05:22:56.867Z,4.95
2019-05-01T05:25:25.966Z,5.20
2019-05-01T05:27:55.266Z,5.03
2019-05-01T05:30:24.441Z,4.70
2019-05-01T05:32:53.562Z,4.50
2019-05-01T05:35:22.817Z,5.03
2019-05-01T05:37:56.262Z,5.25
2019-05-01T05:40:26.158Z,5.10
2019-05-01T05:42:55.037Z,5.20
2019-05-01T05:45:23.939Z,4.65
2019-05-01T05:47:52.756Z,4.75
2019-05-01T05:50:23.463Z,6.10
2019-05-01T05:55:32.702Z,4.90
2019-05-01T05:58:03.224Z,10.88
2019-05-01T06:00:39.592Z,5.58
2019-05-01T06:03:10.123Z,5.60
2019-05-01T06:05:58.676Z,5.47
2019-05-01T06:08:29.530Z,5.33
2019-05-01T06:11:15.814Z,4.70
2019-05-01T06:14:01.696Z,5.00
2019-05-01T06:16:52.232Z,4.92
2019-05-01T06:19:36.865Z,5.87
2019-05-01T06:22:13.005Z,4.92
2019-05-01T06:24:52.562Z,5.20
2019-05-01T06:27:21.364Z,5.08
2019-05-01T06:29:50.139Z,4.83
2019-05-01T06:32:19.036Z,5.22
2019-05-01T06:34:48.116Z,4.80
2019-05-01T06:37:20.903Z,4.67
2019-05-01T06:39:49.709Z,4.47
2019-05-01T06:42:19.838Z,4.78
2019-05-01T06:44:53.317Z,6.45
2019-05-01T06:47:29.863Z,4.53
2019-05-01T06:50:01.069Z,4.33
2019-05-01T06:52:30.717Z,4.30
2019-05-01T06:54:59.604Z,6.40
2019-05-01T06:57:28.499Z,4.55
2019-05-01T06:59:57.515Z,5.05
2019-05-01T07:02:29.818Z,4.53
2019-05-01T07:04:57.525Z,4.53
2019-05-01T07:07:26.514Z,4.20
2019-05-01T07:09:55.790Z,3.83
2019-05-01T07:12:28.269Z,4.35
2019-05-01T07:17:23.511Z,4.17
2019-05-01T07:20:06.323Z,4.22
2019-05-01T07:22:37.037Z,3.90
2019-05-01T07:25:07.564Z,4.10
2019-05-01T07:27:36.726Z,3.95
2019-05-01T07:30:26.484Z,4.17
2019-05-01T07:32:55.359Z,4.05
2019-05-01T07:35:24.348Z,3.45
2019-05-01T07:37:53.225Z,3.60
2019-05-01T07:40:28.913Z,3.50
2019-05-01T07:42:54.102Z,3.33
2019-05-01T07:45:30.262Z,3.27
2019-05-01T07:48:01.048Z,3.60
2019-05-01T07:50:31.907Z,3.80
2019-05-01T07:53:00.499Z,3.35
2019-05-01T07:55:36.671Z,3.20
2019-05-01T07:58:10.450Z,3.30
2019-05-01T08:00:48.894Z,3.25
2019-05-01T08:03:17.870Z,3.08
2019-05-01T08:05:46.946Z,3.40
2019-05-01T08:08:15.762Z,3.20
2019-05-01T08:10:44.646Z,3.22
2019-05-01T08:13:13.543Z,3.37
2019-05-01T08:15:42.419Z,3.25
2019-05-01T08:18:29.403Z,3.42
2019-05-01T08:21:16.256Z,3.62
2019-05-01T08:23:47.127Z,3.50
2019-05-01T08:26:15.880Z,3.25
2019-05-01T08:29:06.719Z,3.05
2019-05-01T08:31:35.162Z,3.15
2019-05-01T08:34:14.505Z,3.50
2019-05-01T08:36:48.457Z,3.40
2019-05-01T08:39:17.392Z,3.15
2019-05-01T08:41:46.178Z,3.20
2019-05-01T08:44:15.053Z,3.95
2019-05-01T08:47:04.014Z,3.47
2019-05-01T08:49:37.334Z,3.45
2019-05-01T08:52:12.586Z,3.10
2019-05-01T08:54:36.700Z,3.42
2019-05-01T08:57:07.798Z,2.85
2019-05-01T08:59:36.085Z,3.12
2019-05-01T09:02:09.561Z,3.40
2019-05-01T09:04:35.366Z,3.33
2019-05-01T09:07:04.258Z,3.30
2019-05-01T09:09:33.655Z,3.02
2019-05-01T09:12:02.547Z,3.47
2019-05-01T09:14:35.077Z,2.98
2019-05-01T09:17:02.073Z,2.80
2019-05-01T09:19:31.033Z,3.10
2019-05-01T09:21:59.875Z,3.10
2019-05-01T09:24:29.429Z,3.00
2019-05-01T09:27:09.400Z,2.80
2019-05-01T09:29:39.938Z,2.95
2019-05-01T09:32:10.084Z,2.90
2019-05-01T09:34:39.262Z,2.70
2019-05-01T09:37:08.258Z,3.12
2019-05-01T09:39:37.550Z,2.90
2019-05-01T09:42:07.972Z,2.95
2019-05-01T09:44:36.828Z,2.90
2019-05-01T09:47:06.368Z,2.70
2019-05-01T09:49:35.261Z,2.90
2019-05-01T09:52:12.128Z,2.85
2019-05-01T09:54:46.692Z,2.85
2019-05-01T09:57:16.272Z,2.70
2019-05-01T09:59:45.249Z,2.77
2019-05-01T10:02:14.639Z,2.70
2019-05-01T10:04:43.647Z,2.87
2019-05-01T10:07:12.463Z,2.60
2019-05-01T10:09:41.328Z,2.55
2019-05-01T10:12:11.531Z,2.30
2019-05-01T10:17:08.923Z,2.40
2019-05-01T10:19:37.899Z,2.47
2019-05-01T10:22:06.785Z,2.27
2019-05-01T10:24:37.649Z,2.50
2019-05-01T10:27:07.767Z,2.12
2019-05-01T10:32:26.218Z,2.30
2019-05-01T10:34:57.006Z,2.40
2019-05-01T10:37:28.317Z,2.15
2019-05-01T10:39:56.582Z,2.25
2019-05-01T10:42:25.558Z,2.00
2019-05-01T10:44:54.557Z,2.12
2019-05-01T10:47:23.552Z,2.20
2019-05-01T10:49:52.425Z,2.05
2019-05-01T10:52:21.447Z,2.15
2019-05-01T10:54:50.267Z,2.27
2019-05-01T10:57:19.002Z,2.30
2019-05-01T10:59:48.003Z,2.00
2019-05-01T11:02:18.418Z,2.05
2019-05-01T11:04:47.322Z,1.95
2019-05-01T11:07:16.318Z,1.67
2019-05-01T11:09:45.202Z,2.25
2019-05-01T11:12:14.055Z,2.10
2019-05-01T11:14:42.971Z,2.10
2019-05-01T11:17:11.870Z,2.08
2019-05-01T11:19:40.660Z,1.85
2019-05-01T11:22:09.453Z,1.87
2019-05-01T11:24:38.430Z,2.00
2019-05-01T11:27:07.416Z,2.05
2019-05-01T11:29:36.421Z,1.87
2019-05-01T11:32:09.733Z,1.85
2019-05-01T11:34:49.455Z,1.92
2019-05-01T11:37:36.675Z,1.60
2019-05-01T11:40:12.835Z,2.00
2019-05-01T11:42:41.934Z,1.77
2019-05-01T11:45:10.821Z,2.30
2019-05-01T11:47:39.721Z,1.80
2019-05-01T11:50:08.607Z,1.70
2019-05-01T11:52:37.579Z,1.90
2019-05-01T11:55:06.578Z,1.65
2019-05-01T11:57:35.478Z,2.25
2019-05-01T12:00:10.707Z,2.47
2019-05-01T12:02:39.605Z,2.17
2019-05-01T12:05:08.603Z,1.70
2019-05-01T12:07:37.705Z,1.87
2019-05-01T12:10:07.408Z,2.30
2019-05-01T12:12:36.496Z,2.40
2019-05-01T12:15:06.661Z,2.08
2019-05-01T12:17:38.908Z,2.10
2019-05-01T12:20:07.716Z,1.70
2019-05-01T12:22:36.477Z,2.98
2019-05-01T12:25:05.962Z,2.40
2019-05-01T12:27:34.968Z,2.30
2019-05-01T12:30:05.656Z,2.42
2019-05-01T12:32:34.676Z,2.20
2019-05-01T12:35:04.203Z,1.92
2019-05-01T12:37:34.599Z,1.90
2019-05-01T12:40:03.718Z,1.80
2019-05-01T12:42:34.219Z,2.20
2019-05-01T12:45:03.035Z,2.05
2019-05-01T12:47:38.127Z,1.90
2019-05-01T12:50:09.359Z,2.00
2019-05-01T12:52:57.978Z,2.02
2019-05-01T12:55:43.763Z,1.72
2019-05-01T12:58:12.893Z,1.87
2019-05-01T13:00:46.545Z,1.52
2019-05-01T13:03:15.923Z,1.92
2019-05-01T13:05:44.944Z,1.37
2019-05-01T13:08:13.933Z,1.57
2019-05-01T13:10:42.913Z,1.77
2019-05-01T13:13:11.912Z,1.95
2019-05-01T13:15:40.739Z,1.65
2019-05-01T13:18:09.691Z,1.67
2019-05-01T13:20:38.680Z,1.82
2019-05-01T13:23:07.740Z,1.87
2019-05-01T13:25:36.599Z,2.10
2019-05-01T13:28:19.277Z,1.90
2019-05-01T13:30:58.658Z,2.95
2019-05-01T13:33:27.712Z,2.17
2019-05-01T13:35:56.867Z,2.22
2019-05-01T13:38:25.849Z,1.90
2019-05-01T13:40:55.095Z,2.10
2019-05-01T13:43:24.202Z,1.65
2019-05-01T13:45:53.418Z,2.10
2019-05-01T13:48:22.171Z,2.00
2019-05-01T13:50:51.398Z,1.80
2019-05-01T13:53:20.272Z,1.80
2019-05-01T13:55:49.325Z,2.00
2019-05-01T13:58:18.490Z,1.95
2019-05-01T14:00:47.550Z,1.80
2019-05-01T14:03:16.583Z,1.90
2019-05-01T14:05:45.634Z,1.85
2019-05-01T14:08:14.559Z,1.80
2019-05-01T14:10:43.599Z,1.70
2019-05-01T14:13:12.718Z,2.50
2019-05-01T14:15:41.914Z,1.92
2019-05-01T14:18:10.639Z,2.10
2019-05-01T14:20:57.605Z,1.70
2019-05-01T14:23:28.237Z,1.70
2019-05-01T14:26:03.570Z,2.10
2019-05-01T14:28:33.690Z,1.60
2019-05-01T14:31:04.109Z,2.20
2019-05-01T14:33:33.329Z,1.60
2019-05-01T14:36:02.305Z,1.60
2019-05-01T14:38:31.626Z,1.67
2019-05-01T14:41:03.642Z,1.85
2019-05-01T14:43:33.073Z,2.10
2019-05-01T14:46:02.816Z,1.95
2019-05-01T14:48:32.752Z,2.02
2019-05-01T14:51:03.380Z,2.02
2019-05-01T14:53:32.527Z,2.08
2019-05-01T14:56:02.033Z,2.20
2019-05-01T14:58:32.362Z,1.90
2019-05-01T15:01:03.402Z,1.80
2019-05-01T15:03:32.515Z,2.30
2019-05-01T15:06:01.764Z,1.95
2019-05-01T15:08:31.475Z,2.08
2019-05-01T15:11:02.674Z,2.17
2019-05-01T15:13:48.021Z,1.90
2019-05-01T15:16:22.862Z,1.90
2019-05-01T15:18:53.638Z,1.90
2019-05-01T15:21:22.759Z,2.05
2019-05-01T15:23:53.774Z,2.08
2019-05-01T15:26:24.261Z,1.90
2019-05-01T15:28:53.636Z,2.17
2019-05-01T15:31:22.745Z,2.05
2019-05-01T15:33:51.857Z,2.17
2019-05-01T15:36:20.835Z,2.20
2019-05-01T15:38:50.328Z,1.90
2019-05-01T15:41:39.293Z,2.15
2019-05-01T15:44:19.557Z,2.33
2019-05-01T15:46:52.340Z,2.02
2019-05-01T15:49:22.737Z,2.17
2019-05-01T15:51:51.873Z,1.82
2019-05-01T15:54:23.493Z,2.02
2019-05-01T15:56:52.554Z,1.90
2019-05-01T15:59:26.331Z,2.25
2019-05-01T16:01:55.573Z,2.20
2019-05-01T16:04:24.686Z,2.50
2019-05-01T16:06:54.051Z,2.37
2019-05-01T16:09:23.194Z,3.52
2019-05-01T16:11:54.041Z,2.40
2019-05-01T16:14:23.245Z,2.85
2019-05-01T16:16:52.269Z,2.98
2019-05-01T16:19:21.422Z,2.47
2019-05-01T16:21:50.582Z,2.40
2019-05-01T16:24:19.742Z,2.52
2019-05-01T16:26:48.668Z,2.65
2019-05-01T16:29:18.032Z,2.70
2019-05-01T16:31:47.136Z,2.30
2019-05-01T16:34:16.290Z,2.42
2019-05-01T16:36:45.867Z,2.40
2019-05-01T16:39:16.534Z,2.50
2019-05-01T16:41:47.165Z,16.73
2019-05-01T16:46:44.745Z,2.95
2019-05-01T16:49:13.654Z,3.00
2019-05-01T16:51:42.546Z,2.62
2019-05-01T16:54:11.737Z,2.80
2019-05-01T16:56:41.135Z,2.70
2019-05-01T16:59:10.691Z,2.80
2019-05-01T17:01:42.967Z,2.50
2019-05-01T17:04:22.847Z,2.50
2019-05-01T17:06:53.427Z,2.40
2019-05-01T17:12:10.937Z,2.67
2019-05-01T17:14:39.798Z,2.62
2019-05-01T17:17:10.247Z,2.35
2019-05-01T17:19:42.131Z,2.35
2019-05-01T17:22:14.258Z,2.50
2019-05-01T17:24:47.672Z,2.70
2019-05-01T17:27:19.599Z,2.40
2019-05-01T17:29:52.634Z,2.62
2019-05-01T17:32:21.414Z,2.30
2019-05-01T17:34:52.582Z,2.40
2019-05-01T17:37:22.602Z,2.33
2019-05-01T17:40:06.012Z,2.62
2019-05-01T17:42:38.936Z,2.25
2019-05-01T17:45:11.159Z,2.10
2019-05-01T17:47:42.929Z,2.47
2019-05-01T17:50:16.428Z,2.50
2019-05-01T17:52:44.298Z,2.20
2019-05-01T17:55:28.640Z,2.30
2019-05-01T17:57:58.043Z,2.20
2019-05-01T18:00:39.862Z,2.10
2019-05-01T18:03:26.935Z,2.55
2019-05-01T18:06:12.891Z,2.40
2019-05-01T18:08:42.384Z,2.58
2019-05-01T18:11:14.282Z,2.30
2019-05-01T18:13:42.441Z,2.45
2019-05-01T18:16:11.461Z,2.30
2019-05-01T18:18:40.424Z,2.33
2019-05-01T18:21:11.171Z,2.27
2019-05-01T18:23:58.194Z,2.27
2019-05-01T18:26:32.078Z,2.37
2019-05-01T18:29:08.853Z,2.45
2019-05-01T18:31:38.142Z,2.72
2019-05-01T18:34:07.380Z,2.15
2019-05-01T18:36:38.016Z,2.55
2019-05-01T18:39:17.065Z,2.27
2019-05-01T18:41:54.082Z,2.25
2019-05-01T18:44:23.441Z,2.60
2019-05-01T18:46:52.536Z,2.58
2019-05-01T18:49:21.564Z,2.55
2019-05-01T18:51:50.718Z,2.58
2019-05-01T18:54:19.877Z,2.50
2019-05-01T18:56:49.111Z,2.42
2019-05-01T18:59:18.425Z,2.25
2019-05-01T19:01:48.512Z,2.52
2019-05-01T19:04:23.073Z,2.87
2019-05-01T19:09:29.258Z,3.20
2019-05-01T19:11:48.412Z,2.17
2019-05-01T19:14:18.129Z,2.27
2019-05-01T19:16:47.452Z,2.43
2019-05-01T19:19:16.596Z,2.50
2019-05-01T19:21:48.013Z,2.60
2019-05-01T19:24:17.171Z,2.67
2019-05-01T19:26:46.227Z,3.17
2019-05-01T19:29:15.098Z,2.40
2019-05-01T19:31:44.255Z,2.58
2019-05-01T19:34:16.345Z,2.50
2019-05-01T19:36:46.369Z,2.45
2019-05-01T19:39:15.779Z,2.25
2019-05-01T19:41:49.107Z,2.60
2019-05-01T19:46:45.592Z,2.12
2019-05-01T19:49:14.479Z,2.70
2019-05-01T19:51:43.376Z,2.35
2019-05-01T19:54:13.081Z,2.92
2019-05-01T19:56:42.188Z,2.53
2019-05-01T19:59:11.306Z,2.70
2019-05-01T20:01:44.096Z,4.00
2019-05-01T20:04:13.067Z,4.25
2019-05-01T20:06:42.095Z,3.75
2019-05-01T20:09:11.475Z,3.08
2019-05-01T20:11:40.776Z,3.10
2019-05-01T20:14:09.841Z,3.05
2019-05-01T20:16:39.121Z,2.72
2019-05-01T20:19:08.332Z,2.40
2019-05-01T20:21:37.508Z,2.47
2019-05-01T20:24:09.361Z,2.60
2019-05-01T20:29:07.785Z,2.55
2019-05-01T20:34:04.466Z,2.70
2019-05-01T20:36:33.757Z,2.72
2019-05-01T20:39:03.488Z,2.60
2019-05-01T20:41:32.685Z,5.63
2019-05-01T20:44:01.727Z,2.95
2019-05-01T20:46:30.803Z,3.12
2019-05-01T20:49:01.470Z,3.40
2019-05-01T20:51:30.391Z,3.40
2019-05-01T20:53:59.642Z,2.95
2019-05-01T20:56:30.458Z,3.50
2019-05-01T20:59:03.287Z,3.35
2019-05-01T21:01:30.937Z,2.70
2019-05-01T21:04:01.659Z,2.50
2019-05-01T21:06:39.182Z,3.47
2019-05-01T21:09:13.103Z,2.60
2019-05-01T21:11:42.131Z,2.90
2019-05-01T21:14:20.091Z,2.45
2019-05-01T21:16:43.932Z,2.72
2019-05-01T21:21:43.444Z,2.50
2019-05-01T21:24:14.007Z,2.60
2019-05-01T21:26:43.434Z,2.87
2019-05-01T21:29:14.013Z,2.65
2019-05-01T21:34:14.430Z,2.60
2019-05-01T21:36:47.604Z,2.62
2019-05-01T21:39:15.557Z,2.30
2019-05-01T21:41:45.665Z,2.40
2019-05-01T21:44:14.926Z,2.33
2019-05-01T21:46:43.866Z,2.30
2019-05-01T21:49:13.187Z,2.90
2019-05-01T21:51:45.890Z,2.70
2019-05-01T21:54:16.093Z,2.62
2019-05-01T21:56:43.919Z,3.83
2019-05-01T21:59:15.073Z,3.62
2019-05-01T22:01:44.231Z,3.10
2019-05-01T22:04:13.126Z,2.90
2019-05-01T22:06:46.792Z,2.98
2019-05-01T22:09:18.168Z,2.85
2019-05-01T22:11:47.521Z,2.42
2019-05-01T22:14:36.058Z,2.40
2019-05-01T22:17:05.682Z,2.00
2019-05-01T22:22:10.669Z,2.35
2019-05-01T22:24:57.590Z,2.52
2019-05-01T22:27:37.034Z,2.80
2019-05-01T22:30:16.463Z,2.67
2019-05-01T22:32:46.965Z,2.60
2019-05-01T22:35:17.799Z,2.70
2019-05-01T22:37:47.185Z,2.45
2019-05-01T22:40:17.852Z,3.02
2019-05-01T22:45:23.020Z,2.45
2019-05-01T22:47:52.544Z,2.50
2019-05-01T22:50:21.746Z,2.35
2019-05-01T22:52:50.750Z,2.37
2019-05-01T22:55:20.455Z,2.20
2019-05-01T22:57:50.882Z,2.22
2019-05-01T23:00:26.285Z,2.50
2019-05-01T23:02:55.570Z,2.75
2019-05-01T23:05:27.973Z,2.80
2019-05-01T23:10:25.297Z,2.35
2019-05-01T23:12:54.442Z,2.37
2019-05-01T23:15:25.077Z,2.25
2019-05-01T23:20:24.134Z,2.80
2019-05-01T23:22:53.396Z,2.70
2019-05-01T23:25:22.257Z,2.58
2019-05-01T23:27:51.397Z,2.35
2019-05-01T23:30:21.966Z,2.70
2019-05-01T23:35:19.497Z,2.52
2019-05-01T23:37:48.756Z,2.50
2019-05-01T23:40:17.906Z,2.65
2019-05-01T23:42:52.348Z,2.30
2019-05-01T23:47:45.973Z,2.55
2019-05-01T23:50:15.155Z,2.20
2019-05-01T23:52:44.510Z,2.33
2019-05-01T23:55:13.427Z,2.33
2019-05-01T23:57:42.528Z,2.50
